sensor_id;sensor_type;location;lat;lon;timestamp;temperature;humidity
15083;DHT22;7640;53.116;6.878;2023-03-23T00:01:48;11.90;99.90
15083;DHT22;7640;53.116;6.878;2023-03-23T00:04:16;11.80;99.90
15083;DHT22;7640;53.116;6.878;2023-03-23T00:06:44;11.80;99.90
15083;DHT22;7640;53.116;6.878;2023-03-23T00:09:12;11.80;99.90
15083;DHT22;7640;53.116;6.878;2023-03-23T00:11:41;11.80;99.90
15083;DHT22;7640;53.116;6.878;2023-03-23T00:14:09;11.80;99.90
15083;DHT22;7640;53.116;6.878;2023-03-23T00:16:39;11.80;99.90
15083;DHT22;7640;53.116;6.878;2023-03-23T00:19:09;11.80;99.90
15083;DHT22;7640;53.116;6.878;2023-03-23T00:21:40;11.80;99.90
15083;DHT22;7640;53.116;6.878;2023-03-23T00:24:12;11.90;99.90
15083;DHT22;7640;53.116;6.878;2023-03-23T00:26:43;11.90;99.90
15083;DHT22;7640;53.116;6.878;2023-03-23T00:29:13;11.90;99.90
15083;DHT22;7640;53.116;6.878;2023-03-23T00:31:43;11.90;99.90
15083;DHT22;7640;53.116;6.878;2023-03-23T00:34:14;11.80;99.90
15083;DHT22;7640;53.116;6.878;2023-03-23T00:36:45;11.90;99.90
15083;DHT22;7640;53.116;6.878;2023-03-23T00:39:14;11.90;99.90
15083;DHT22;7640;53.116;6.878;2023-03-23T00:41:43;11.90;99.90
15083;DHT22;7640;53.116;6.878;2023-03-23T00:44:11;11.90;99.90
15083;DHT22;7640;53.116;6.878;2023-03-23T00:46:42;11.90;99.90
15083;DHT22;7640;53.116;6.878;2023-03-23T00:49:12;11.90;99.90
15083;DHT22;7640;53.116;6.878;2023-03-23T00:51:40;11.90;99.90
15083;DHT22;7640;53.116;6.878;2023-03-23T00:54:09;11.90;99.90
15083;DHT22;7640;53.116;6.878;2023-03-23T00:56:38;11.90;99.90
15083;DHT22;7640;53.116;6.878;2023-03-23T00:59:06;11.90;99.90
15083;DHT22;7640;53.116;6.878;2023-03-23T01:01:33;11.90;99.90
15083;DHT22;7640;53.116;6.878;2023-03-23T01:04:01;11.90;99.90
15083;DHT22;7640;53.116;6.878;2023-03-23T01:06:30;11.90;99.90
15083;DHT22;7640;53.116;6.878;2023-03-23T01:09:01;11.90;99.90
15083;DHT22;7640;53.116;6.878;2023-03-23T01:11:30;11.90;99.90
15083;DHT22;7640;53.116;6.878;2023-03-23T01:13:59;12.00;99.90
15083;DHT22;7640;53.116;6.878;2023-03-23T01:16:28;11.90;99.90
15083;DHT22;7640;53.116;6.878;2023-03-23T01:18:56;11.90;99.90
15083;DHT22;7640;53.116;6.878;2023-03-23T01:21:23;11.90;99.90
15083;DHT22;7640;53.116;6.878;2023-03-23T01:23:52;11.90;99.90
15083;DHT22;7640;53.116;6.878;2023-03-23T01:26:21;11.90;99.90
15083;DHT22;7640;53.116;6.878;2023-03-23T01:28:49;11.90;99.90
15083;DHT22;7640;53.116;6.878;2023-03-23T01:31:19;11.90;99.90
15083;DHT22;7640;53.116;6.878;2023-03-23T01:33:48;11.90;99.90
15083;DHT22;7640;53.116;6.878;2023-03-23T01:36:17;11.90;99.90
15083;DHT22;7640;53.116;6.878;2023-03-23T01:38:48;11.90;99.90
15083;DHT22;7640;53.116;6.878;2023-03-23T01:41:18;11.90;99.90
15083;DHT22;7640;53.116;6.878;2023-03-23T01:43:57;11.90;99.90
15083;DHT22;7640;53.116;6.878;2023-03-23T01:46:30;11.90;99.90
15083;DHT22;7640;53.116;6.878;2023-03-23T01:49:02;11.80;99.90
15083;DHT22;7640;53.116;6.878;2023-03-23T01:51:36;11.80;99.90
15083;DHT22;7640;53.116;6.878;2023-03-23T01:54:08;11.80;99.90
15083;DHT22;7640;53.116;6.878;2023-03-23T01:56:41;11.80;99.90
15083;DHT22;7640;53.116;6.878;2023-03-23T01:59:14;11.80;99.90
15083;DHT22;7640;53.116;6.878;2023-03-23T02:01:43;11.80;99.90
15083;DHT22;7640;53.116;6.878;2023-03-23T02:04:13;11.70;99.90
15083;DHT22;7640;53.116;6.878;2023-03-23T02:06:41;11.70;99.90
15083;DHT22;7640;53.116;6.878;2023-03-23T02:09:11;11.70;99.90
15083;DHT22;7640;53.116;6.878;2023-03-23T02:11:39;11.70;99.90
15083;DHT22;7640;53.116;6.878;2023-03-23T02:14:07;11.70;99.90
15083;DHT22;7640;53.116;6.878;2023-03-23T02:16:41;11.70;99.90
15083;DHT22;7640;53.116;6.878;2023-03-23T02:19:41;11.70;99.90
15083;DHT22;7640;53.116;6.878;2023-03-23T02:25:50;11.70;99.90
15083;DHT22;7640;53.116;6.878;2023-03-23T02:28:48;11.70;99.90
15083;DHT22;7640;53.116;6.878;2023-03-23T02:31:43;11.70;99.90
15083;DHT22;7640;53.116;6.878;2023-03-23T02:34:38;11.70;99.90
15083;DHT22;7640;53.116;6.878;2023-03-23T02:37:11;11.60;99.90
15083;DHT22;7640;53.116;6.878;2023-03-23T02:39:44;11.60;99.90
15083;DHT22;7640;53.116;6.878;2023-03-23T02:42:17;11.70;99.90
15083;DHT22;7640;53.116;6.878;2023-03-23T02:44:48;11.60;99.90
15083;DHT22;7640;53.116;6.878;2023-03-23T02:47:18;11.60;99.90
15083;DHT22;7640;53.116;6.878;2023-03-23T02:49:51;11.60;99.90
15083;DHT22;7640;53.116;6.878;2023-03-23T02:52:23;11.50;99.90
15083;DHT22;7640;53.116;6.878;2023-03-23T02:54:53;11.60;99.90
15083;DHT22;7640;53.116;6.878;2023-03-23T02:57:22;11.50;99.90
15083;DHT22;7640;53.116;6.878;2023-03-23T02:59:50;11.50;99.90
15083;DHT22;7640;53.116;6.878;2023-03-23T03:02:20;11.50;99.90
15083;DHT22;7640;53.116;6.878;2023-03-23T03:04:55;11.50;99.90
15083;DHT22;7640;53.116;6.878;2023-03-23T03:07:56;11.50;99.90
15083;DHT22;7640;53.116;6.878;2023-03-23T03:10:31;11.50;99.90
15083;DHT22;7640;53.116;6.878;2023-03-23T03:13:06;11.60;99.90
15083;DHT22;7640;53.116;6.878;2023-03-23T03:15:43;11.50;99.90
15083;DHT22;7640;53.116;6.878;2023-03-23T03:18:15;11.60;99.90
15083;DHT22;7640;53.116;6.878;2023-03-23T03:20:48;11.60;99.90
15083;DHT22;7640;53.116;6.878;2023-03-23T03:23:22;11.60;99.90
15083;DHT22;7640;53.116;6.878;2023-03-23T03:25:52;11.60;99.90
15083;DHT22;7640;53.116;6.878;2023-03-23T03:28:20;11.60;99.90
15083;DHT22;7640;53.116;6.878;2023-03-23T03:30:51;11.60;99.90
15083;DHT22;7640;53.116;6.878;2023-03-23T03:33:21;11.70;99.90
15083;DHT22;7640;53.116;6.878;2023-03-23T03:35:54;11.60;99.90
15083;DHT22;7640;53.116;6.878;2023-03-23T03:38:25;11.70;99.90
15083;DHT22;7640;53.116;6.878;2023-03-23T03:40:54;11.70;99.90
15083;DHT22;7640;53.116;6.878;2023-03-23T03:43:22;11.70;99.90
15083;DHT22;7640;53.116;6.878;2023-03-23T03:45:50;11.70;99.90
15083;DHT22;7640;53.116;6.878;2023-03-23T03:48:17;11.70;99.90
15083;DHT22;7640;53.116;6.878;2023-03-23T03:50:44;11.70;99.90
15083;DHT22;7640;53.116;6.878;2023-03-23T03:53:13;11.70;99.90
15083;DHT22;7640;53.116;6.878;2023-03-23T03:55:40;11.70;99.90
15083;DHT22;7640;53.116;6.878;2023-03-23T03:58:11;11.80;99.90
15083;DHT22;7640;53.116;6.878;2023-03-23T04:00:39;11.80;99.90
15083;DHT22;7640;53.116;6.878;2023-03-23T04:03:07;11.70;99.90
15083;DHT22;7640;53.116;6.878;2023-03-23T04:05:35;11.80;99.90
15083;DHT22;7640;53.116;6.878;2023-03-23T04:08:03;11.70;99.90
15083;DHT22;7640;53.116;6.878;2023-03-23T04:10:33;11.70;99.90
15083;DHT22;7640;53.116;6.878;2023-03-23T04:13:00;11.70;99.90
15083;DHT22;7640;53.116;6.878;2023-03-23T04:15:30;11.70;99.90
15083;DHT22;7640;53.116;6.878;2023-03-23T04:17:57;11.70;99.90
15083;DHT22;7640;53.116;6.878;2023-03-23T04:20:25;11.60;99.90
15083;DHT22;7640;53.116;6.878;2023-03-23T04:22:52;11.60;99.90
15083;DHT22;7640;53.116;6.878;2023-03-23T04:25:21;11.60;99.90
15083;DHT22;7640;53.116;6.878;2023-03-23T04:27:50;11.60;99.90
15083;DHT22;7640;53.116;6.878;2023-03-23T04:30:19;11.60;99.90
15083;DHT22;7640;53.116;6.878;2023-03-23T04:32:49;11.60;99.90
15083;DHT22;7640;53.116;6.878;2023-03-23T04:35:19;11.60;99.90
15083;DHT22;7640;53.116;6.878;2023-03-23T04:37:47;11.70;99.90
15083;DHT22;7640;53.116;6.878;2023-03-23T04:40:14;11.60;99.90
15083;DHT22;7640;53.116;6.878;2023-03-23T04:42:43;11.60;99.90
15083;DHT22;7640;53.116;6.878;2023-03-23T04:45:15;11.70;99.90
15083;DHT22;7640;53.116;6.878;2023-03-23T04:47:48;11.70;99.90
15083;DHT22;7640;53.116;6.878;2023-03-23T04:50:20;11.70;99.90
15083;DHT22;7640;53.116;6.878;2023-03-23T04:52:50;11.70;99.90
15083;DHT22;7640;53.116;6.878;2023-03-23T04:55:21;11.70;99.90
15083;DHT22;7640;53.116;6.878;2023-03-23T04:57:48;11.70;99.90
15083;DHT22;7640;53.116;6.878;2023-03-23T05:00:18;11.70;99.90
15083;DHT22;7640;53.116;6.878;2023-03-23T05:02:47;11.50;99.90
15083;DHT22;7640;53.116;6.878;2023-03-23T05:05:19;11.30;99.90
15083;DHT22;7640;53.116;6.878;2023-03-23T05:07:47;11.10;99.90
15083;DHT22;7640;53.116;6.878;2023-03-23T05:10:16;11.00;99.90
15083;DHT22;7640;53.116;6.878;2023-03-23T05:12:44;11.00;99.90
15083;DHT22;7640;53.116;6.878;2023-03-23T05:15:13;11.00;99.90
15083;DHT22;7640;53.116;6.878;2023-03-23T05:17:43;11.00;99.90
15083;DHT22;7640;53.116;6.878;2023-03-23T05:20:11;11.00;99.90
15083;DHT22;7640;53.116;6.878;2023-03-23T05:22:40;11.00;99.90
15083;DHT22;7640;53.116;6.878;2023-03-23T05:25:10;11.00;99.90
15083;DHT22;7640;53.116;6.878;2023-03-23T05:27:39;10.90;99.90
15083;DHT22;7640;53.116;6.878;2023-03-23T05:30:08;10.90;99.90
15083;DHT22;7640;53.116;6.878;2023-03-23T05:32:37;10.90;99.90
15083;DHT22;7640;53.116;6.878;2023-03-23T05:35:07;10.90;99.90
15083;DHT22;7640;53.116;6.878;2023-03-23T05:37:34;10.90;99.90
15083;DHT22;7640;53.116;6.878;2023-03-23T05:40:03;10.90;99.90
15083;DHT22;7640;53.116;6.878;2023-03-23T05:42:32;10.80;99.90
15083;DHT22;7640;53.116;6.878;2023-03-23T05:45:00;10.80;99.90
15083;DHT22;7640;53.116;6.878;2023-03-23T05:47:27;10.80;99.90
15083;DHT22;7640;53.116;6.878;2023-03-23T05:49:56;10.80;99.90
15083;DHT22;7640;53.116;6.878;2023-03-23T05:52:25;10.80;99.90
15083;DHT22;7640;53.116;6.878;2023-03-23T05:54:53;10.80;99.90
15083;DHT22;7640;53.116;6.878;2023-03-23T05:57:20;10.80;99.90
15083;DHT22;7640;53.116;6.878;2023-03-23T05:59:48;10.90;99.90
15083;DHT22;7640;53.116;6.878;2023-03-23T06:02:16;10.90;99.90
15083;DHT22;7640;53.116;6.878;2023-03-23T06:04:43;10.90;99.90
15083;DHT22;7640;53.116;6.878;2023-03-23T06:07:10;10.90;99.90
15083;DHT22;7640;53.116;6.878;2023-03-23T06:09:41;10.90;99.90
15083;DHT22;7640;53.116;6.878;2023-03-23T06:12:09;10.90;99.90
15083;DHT22;7640;53.116;6.878;2023-03-23T06:14:37;10.90;99.90
15083;DHT22;7640;53.116;6.878;2023-03-23T06:17:05;11.00;99.90
15083;DHT22;7640;53.116;6.878;2023-03-23T06:19:33;11.00;99.90
15083;DHT22;7640;53.116;6.878;2023-03-23T06:22:01;11.00;99.90
15083;DHT22;7640;53.116;6.878;2023-03-23T06:24:28;11.00;99.90
15083;DHT22;7640;53.116;6.878;2023-03-23T06:26:58;11.00;99.90
15083;DHT22;7640;53.116;6.878;2023-03-23T06:29:26;11.00;99.90
15083;DHT22;7640;53.116;6.878;2023-03-23T06:31:56;11.00;99.90
15083;DHT22;7640;53.116;6.878;2023-03-23T06:34:26;11.10;99.90
15083;DHT22;7640;53.116;6.878;2023-03-23T06:36:53;11.10;99.90
15083;DHT22;7640;53.116;6.878;2023-03-23T06:39:21;11.10;99.90
15083;DHT22;7640;53.116;6.878;2023-03-23T06:42:11;11.10;99.90
15083;DHT22;7640;53.116;6.878;2023-03-23T06:45:01;11.10;99.90
15083;DHT22;7640;53.116;6.878;2023-03-23T06:47:29;11.20;99.90
15083;DHT22;7640;53.116;6.878;2023-03-23T06:49:57;11.20;99.90
15083;DHT22;7640;53.116;6.878;2023-03-23T06:52:25;11.10;99.90
15083;DHT22;7640;53.116;6.878;2023-03-23T06:54:53;11.20;99.90
15083;DHT22;7640;53.116;6.878;2023-03-23T06:57:22;11.20;99.90
15083;DHT22;7640;53.116;6.878;2023-03-23T06:59:51;11.20;99.90
15083;DHT22;7640;53.116;6.878;2023-03-23T07:02:26;11.30;99.90
15083;DHT22;7640;53.116;6.878;2023-03-23T07:04:55;11.30;99.90
15083;DHT22;7640;53.116;6.878;2023-03-23T07:07:23;11.30;99.90
15083;DHT22;7640;53.116;6.878;2023-03-23T07:09:50;11.40;99.90
15083;DHT22;7640;53.116;6.878;2023-03-23T07:12:19;11.40;99.90
15083;DHT22;7640;53.116;6.878;2023-03-23T07:14:51;11.40;99.90
15083;DHT22;7640;53.116;6.878;2023-03-23T07:17:18;11.40;99.90
15083;DHT22;7640;53.116;6.878;2023-03-23T07:19:50;11.50;99.90
15083;DHT22;7640;53.116;6.878;2023-03-23T07:22:18;11.50;99.90
15083;DHT22;7640;53.116;6.878;2023-03-23T07:24:57;11.50;99.90
15083;DHT22;7640;53.116;6.878;2023-03-23T07:27:25;11.50;99.90
15083;DHT22;7640;53.116;6.878;2023-03-23T07:29:54;11.50;99.90
15083;DHT22;7640;53.116;6.878;2023-03-23T07:32:23;11.50;99.90
15083;DHT22;7640;53.116;6.878;2023-03-23T07:34:53;11.50;99.90
15083;DHT22;7640;53.116;6.878;2023-03-23T07:37:21;11.50;99.90
15083;DHT22;7640;53.116;6.878;2023-03-23T07:39:50;11.50;99.90
15083;DHT22;7640;53.116;6.878;2023-03-23T07:42:17;11.50;99.90
15083;DHT22;7640;53.116;6.878;2023-03-23T07:44:46;11.60;99.90
15083;DHT22;7640;53.116;6.878;2023-03-23T07:47:15;11.60;99.90
15083;DHT22;7640;53.116;6.878;2023-03-23T07:49:43;11.60;99.90
15083;DHT22;7640;53.116;6.878;2023-03-23T07:52:10;11.70;99.90
15083;DHT22;7640;53.116;6.878;2023-03-23T07:54:38;11.70;99.90
15083;DHT22;7640;53.116;6.878;2023-03-23T07:57:06;11.80;99.90
15083;DHT22;7640;53.116;6.878;2023-03-23T07:59:34;11.80;99.90
15083;DHT22;7640;53.116;6.878;2023-03-23T08:02:01;11.90;99.90
15083;DHT22;7640;53.116;6.878;2023-03-23T08:04:31;11.90;99.90
15083;DHT22;7640;53.116;6.878;2023-03-23T08:07:02;12.00;99.90
15083;DHT22;7640;53.116;6.878;2023-03-23T08:09:31;12.10;99.90
15083;DHT22;7640;53.116;6.878;2023-03-23T08:11:59;12.10;99.90
15083;DHT22;7640;53.116;6.878;2023-03-23T08:14:27;12.20;99.90
15083;DHT22;7640;53.116;6.878;2023-03-23T08:16:55;12.20;99.90
15083;DHT22;7640;53.116;6.878;2023-03-23T08:19:23;12.30;99.90
15083;DHT22;7640;53.116;6.878;2023-03-23T08:22:05;12.30;99.90
15083;DHT22;7640;53.116;6.878;2023-03-23T08:24:39;12.40;99.90
15083;DHT22;7640;53.116;6.878;2023-03-23T08:28:04;12.40;99.90
15083;DHT22;7640;53.116;6.878;2023-03-23T08:33:59;12.40;99.90
15083;DHT22;7640;53.116;6.878;2023-03-23T08:36:33;12.40;99.90
15083;DHT22;7640;53.116;6.878;2023-03-23T08:39:09;12.50;99.90
15083;DHT22;7640;53.116;6.878;2023-03-23T08:41:37;12.50;99.90
15083;DHT22;7640;53.116;6.878;2023-03-23T08:44:04;12.50;99.90
15083;DHT22;7640;53.116;6.878;2023-03-23T08:46:34;12.60;99.90
15083;DHT22;7640;53.116;6.878;2023-03-23T08:49:01;12.60;99.90
15083;DHT22;7640;53.116;6.878;2023-03-23T08:51:29;12.60;99.90
15083;DHT22;7640;53.116;6.878;2023-03-23T08:53:57;12.60;99.90
15083;DHT22;7640;53.116;6.878;2023-03-23T08:56:26;12.50;99.90
15083;DHT22;7640;53.116;6.878;2023-03-23T08:58:56;12.50;99.90
15083;DHT22;7640;53.116;6.878;2023-03-23T09:01:25;12.40;99.90
15083;DHT22;7640;53.116;6.878;2023-03-23T09:04:03;12.40;99.90
15083;DHT22;7640;53.116;6.878;2023-03-23T09:06:31;12.40;99.90
15083;DHT22;7640;53.116;6.878;2023-03-23T09:09:00;12.40;99.90
15083;DHT22;7640;53.116;6.878;2023-03-23T09:11:34;12.50;99.90
15083;DHT22;7640;53.116;6.878;2023-03-23T09:14:04;12.50;99.90
15083;DHT22;7640;53.116;6.878;2023-03-23T09:16:34;12.50;99.90
15083;DHT22;7640;53.116;6.878;2023-03-23T09:19:02;12.50;99.90
15083;DHT22;7640;53.116;6.878;2023-03-23T09:21:31;12.50;99.90
15083;DHT22;7640;53.116;6.878;2023-03-23T09:23:59;12.50;99.90
15083;DHT22;7640;53.116;6.878;2023-03-23T09:26:51;12.50;99.90
15083;DHT22;7640;53.116;6.878;2023-03-23T09:29:22;12.60;99.90
15083;DHT22;7640;53.116;6.878;2023-03-23T09:32:21;12.70;99.90
15083;DHT22;7640;53.116;6.878;2023-03-23T09:34:52;13.00;99.90
15083;DHT22;7640;53.116;6.878;2023-03-23T09:37:50;13.20;99.90
15083;DHT22;7640;53.116;6.878;2023-03-23T09:40:22;13.30;99.90
15083;DHT22;7640;53.116;6.878;2023-03-23T09:43:12;13.40;99.90
15083;DHT22;7640;53.116;6.878;2023-03-23T09:45:53;13.40;99.90
15083;DHT22;7640;53.116;6.878;2023-03-23T09:48:35;13.30;99.90
15083;DHT22;7640;53.116;6.878;2023-03-23T09:51:16;13.40;99.90
15083;DHT22;7640;53.116;6.878;2023-03-23T09:53:52;13.30;99.90
15083;DHT22;7640;53.116;6.878;2023-03-23T09:56:25;13.40;99.90
15083;DHT22;7640;53.116;6.878;2023-03-23T09:59:05;13.50;99.90
15083;DHT22;7640;53.116;6.878;2023-03-23T10:01:41;13.60;99.90
15083;DHT22;7640;53.116;6.878;2023-03-23T10:04:19;13.70;99.90
15083;DHT22;7640;53.116;6.878;2023-03-23T10:06:58;13.70;99.90
15083;DHT22;7640;53.116;6.878;2023-03-23T10:10:01;13.60;99.90
15083;DHT22;7640;53.116;6.878;2023-03-23T10:12:42;13.50;99.90
15083;DHT22;7640;53.116;6.878;2023-03-23T10:15:21;13.40;99.90
15083;DHT22;7640;53.116;6.878;2023-03-23T10:18:01;13.40;99.90
15083;DHT22;7640;53.116;6.878;2023-03-23T10:20:45;13.30;99.90
15083;DHT22;7640;53.116;6.878;2023-03-23T10:23:54;13.40;99.90
15083;DHT22;7640;53.116;6.878;2023-03-23T10:26:54;13.40;99.90
15083;DHT22;7640;53.116;6.878;2023-03-23T10:29:53;13.40;99.90
15083;DHT22;7640;53.116;6.878;2023-03-23T10:33:25;13.50;99.90
15083;DHT22;7640;53.116;6.878;2023-03-23T10:36:03;13.60;99.90
15083;DHT22;7640;53.116;6.878;2023-03-23T10:38:38;13.80;99.90
15083;DHT22;7640;53.116;6.878;2023-03-23T10:41:12;14.00;99.90
15083;DHT22;7640;53.116;6.878;2023-03-23T10:43:41;14.20;99.90
15083;DHT22;7640;53.116;6.878;2023-03-23T10:46:29;14.20;99.90
15083;DHT22;7640;53.116;6.878;2023-03-23T10:49:21;14.30;99.90
15083;DHT22;7640;53.116;6.878;2023-03-23T10:51:59;14.30;99.90
15083;DHT22;7640;53.116;6.878;2023-03-23T10:54:36;14.40;99.90
15083;DHT22;7640;53.116;6.878;2023-03-23T10:57:22;14.50;99.90
15083;DHT22;7640;53.116;6.878;2023-03-23T11:00:00;14.40;99.90
15083;DHT22;7640;53.116;6.878;2023-03-23T11:02:45;14.30;99.90
15083;DHT22;7640;53.116;6.878;2023-03-23T11:05:19;14.30;99.90
15083;DHT22;7640;53.116;6.878;2023-03-23T11:07:51;14.40;99.90
15083;DHT22;7640;53.116;6.878;2023-03-23T11:10:27;14.40;99.90
15083;DHT22;7640;53.116;6.878;2023-03-23T11:13:09;14.50;99.90
15083;DHT22;7640;53.116;6.878;2023-03-23T11:15:56;14.50;99.90
15083;DHT22;7640;53.116;6.878;2023-03-23T11:18:39;14.50;99.90
15083;DHT22;7640;53.116;6.878;2023-03-23T11:21:12;14.60;99.90
15083;DHT22;7640;53.116;6.878;2023-03-23T11:23:42;14.60;99.90
15083;DHT22;7640;53.116;6.878;2023-03-23T11:26:17;14.80;99.90
15083;DHT22;7640;53.116;6.878;2023-03-23T11:28:55;14.90;99.90
15083;DHT22;7640;53.116;6.878;2023-03-23T11:31:30;15.20;99.90
15083;DHT22;7640;53.116;6.878;2023-03-23T11:34:31;15.50;99.90
15083;DHT22;7640;53.116;6.878;2023-03-23T11:37:06;15.70;99.90
15083;DHT22;7640;53.116;6.878;2023-03-23T11:39:47;15.80;99.90
15083;DHT22;7640;53.116;6.878;2023-03-23T11:42:19;15.60;99.90
15083;DHT22;7640;53.116;6.878;2023-03-23T11:44:49;15.60;99.90
15083;DHT22;7640;53.116;6.878;2023-03-23T11:47:23;15.60;99.90
15083;DHT22;7640;53.116;6.878;2023-03-23T11:50:02;15.50;99.90
15083;DHT22;7640;53.116;6.878;2023-03-23T11:52:51;15.60;99.90
15083;DHT22;7640;53.116;6.878;2023-03-23T11:55:55;15.50;99.90
15083;DHT22;7640;53.116;6.878;2023-03-23T11:58:44;15.40;99.90
15083;DHT22;7640;53.116;6.878;2023-03-23T12:01:27;15.40;99.90
15083;DHT22;7640;53.116;6.878;2023-03-23T12:04:30;15.40;99.90
15083;DHT22;7640;53.116;6.878;2023-03-23T12:08:10;15.40;99.90
15083;DHT22;7640;53.116;6.878;2023-03-23T12:11:21;15.60;99.90
15083;DHT22;7640;53.116;6.878;2023-03-23T12:14:08;15.60;99.90
15083;DHT22;7640;53.116;6.878;2023-03-23T12:16:52;15.60;99.90
15083;DHT22;7640;53.116;6.878;2023-03-23T12:19:35;15.70;99.90
15083;DHT22;7640;53.116;6.878;2023-03-23T12:22:35;15.90;99.90
15083;DHT22;7640;53.116;6.878;2023-03-23T12:28:27;16.10;99.90
15083;DHT22;7640;53.116;6.878;2023-03-23T12:31:23;16.30;99.90
15083;DHT22;7640;53.116;6.878;2023-03-23T12:37:38;16.90;99.90
15083;DHT22;7640;53.116;6.878;2023-03-23T12:40:32;17.10;99.90
15083;DHT22;7640;53.116;6.878;2023-03-23T12:43:44;17.20;99.90
15083;DHT22;7640;53.116;6.878;2023-03-23T12:50:29;16.90;99.90
15083;DHT22;7640;53.116;6.878;2023-03-23T12:53:05;16.70;99.90
15083;DHT22;7640;53.116;6.878;2023-03-23T12:55:48;16.70;99.90
15083;DHT22;7640;53.116;6.878;2023-03-23T13:02:20;16.90;99.90
15083;DHT22;7640;53.116;6.878;2023-03-23T13:05:10;16.70;99.90
15083;DHT22;7640;53.116;6.878;2023-03-23T13:08:11;16.40;99.90
15083;DHT22;7640;53.116;6.878;2023-03-23T13:10:58;16.20;99.90
15083;DHT22;7640;53.116;6.878;2023-03-23T13:13:49;16.10;99.90
15083;DHT22;7640;53.116;6.878;2023-03-23T13:16:50;16.00;99.90
15083;DHT22;7640;53.116;6.878;2023-03-23T13:19:50;15.90;99.90
15083;DHT22;7640;53.116;6.878;2023-03-23T13:23:00;15.90;99.90
15083;DHT22;7640;53.116;6.878;2023-03-23T13:25:46;15.80;99.90
15083;DHT22;7640;53.116;6.878;2023-03-23T13:28:20;15.80;99.90
15083;DHT22;7640;53.116;6.878;2023-03-23T13:30:58;16.10;99.90
15083;DHT22;7640;53.116;6.878;2023-03-23T13:36:56;16.50;99.90
15083;DHT22;7640;53.116;6.878;2023-03-23T13:39:32;16.60;99.90
15083;DHT22;7640;53.116;6.878;2023-03-23T13:42:20;16.60;99.90
15083;DHT22;7640;53.116;6.878;2023-03-23T13:45:21;16.60;99.90
15083;DHT22;7640;53.116;6.878;2023-03-23T13:48:25;16.90;99.90
15083;DHT22;7640;53.116;6.878;2023-03-23T13:51:34;16.90;99.90
15083;DHT22;7640;53.116;6.878;2023-03-23T13:54:41;16.70;99.90
15083;DHT22;7640;53.116;6.878;2023-03-23T13:57:34;16.60;99.90
15083;DHT22;7640;53.116;6.878;2023-03-23T14:00:36;16.50;99.90
15083;DHT22;7640;53.116;6.878;2023-03-23T14:03:24;16.40;99.90
15083;DHT22;7640;53.116;6.878;2023-03-23T14:06:05;16.80;99.90
15083;DHT22;7640;53.116;6.878;2023-03-23T14:08:42;17.20;99.90
15083;DHT22;7640;53.116;6.878;2023-03-23T14:11:14;17.50;99.90
15083;DHT22;7640;53.116;6.878;2023-03-23T14:14:01;17.60;99.90
15083;DHT22;7640;53.116;6.878;2023-03-23T14:16:36;17.30;99.90
15083;DHT22;7640;53.116;6.878;2023-03-23T14:19:32;17.10;99.90
15083;DHT22;7640;53.116;6.878;2023-03-23T14:22:34;17.10;99.90
15083;DHT22;7640;53.116;6.878;2023-03-23T14:25:31;17.20;99.90
15083;DHT22;7640;53.116;6.878;2023-03-23T14:28:00;17.00;99.90
15083;DHT22;7640;53.116;6.878;2023-03-23T14:30:35;16.90;99.90
15083;DHT22;7640;53.116;6.878;2023-03-23T14:33:25;16.80;99.90
15083;DHT22;7640;53.116;6.878;2023-03-23T14:35:58;16.80;99.90
15083;DHT22;7640;53.116;6.878;2023-03-23T14:42:25;17.70;99.90
15083;DHT22;7640;53.116;6.878;2023-03-23T14:45:05;18.20;99.90
15083;DHT22;7640;53.116;6.878;2023-03-23T14:47:40;18.40;99.90
15083;DHT22;7640;53.116;6.878;2023-03-23T14:50:23;18.20;99.90
15083;DHT22;7640;53.116;6.878;2023-03-23T14:53:02;17.90;99.90
15083;DHT22;7640;53.116;6.878;2023-03-23T14:55:37;17.60;99.90
15083;DHT22;7640;53.116;6.878;2023-03-23T14:58:17;17.60;99.90
15083;DHT22;7640;53.116;6.878;2023-03-23T15:00:49;18.10;99.90
15083;DHT22;7640;53.116;6.878;2023-03-23T15:03:37;18.60;99.90
15083;DHT22;7640;53.116;6.878;2023-03-23T15:06:14;19.10;99.90
15083;DHT22;7640;53.116;6.878;2023-03-23T15:08:48;19.10;99.90
15083;DHT22;7640;53.116;6.878;2023-03-23T15:11:29;19.00;99.90
15083;DHT22;7640;53.116;6.878;2023-03-23T15:14:02;18.80;99.90
15083;DHT22;7640;53.116;6.878;2023-03-23T15:16:36;19.00;99.90
15083;DHT22;7640;53.116;6.878;2023-03-23T15:19:17;19.20;99.90
15083;DHT22;7640;53.116;6.878;2023-03-23T15:22:26;19.50;99.90
15083;DHT22;7640;53.116;6.878;2023-03-23T15:25:10;19.40;99.90
15083;DHT22;7640;53.116;6.878;2023-03-23T15:27:52;19.60;99.90
15083;DHT22;7640;53.116;6.878;2023-03-23T15:30:33;19.80;99.90
15083;DHT22;7640;53.116;6.878;2023-03-23T15:33:24;19.50;99.90
15083;DHT22;7640;53.116;6.878;2023-03-23T15:39:23;19.10;99.90
15083;DHT22;7640;53.116;6.878;2023-03-23T15:42:00;19.20;99.90
15083;DHT22;7640;53.116;6.878;2023-03-23T15:44:42;19.30;99.90
15083;DHT22;7640;53.116;6.878;2023-03-23T15:47:15;19.40;99.90
15083;DHT22;7640;53.116;6.878;2023-03-23T15:49:46;19.40;99.90
15083;DHT22;7640;53.116;6.878;2023-03-23T15:52:16;19.60;99.90
15083;DHT22;7640;53.116;6.878;2023-03-23T15:54:47;19.70;99.90
15083;DHT22;7640;53.116;6.878;2023-03-23T15:57:16;20.00;99.90
15083;DHT22;7640;53.116;6.878;2023-03-23T15:59:43;20.40;99.90
15083;DHT22;7640;53.116;6.878;2023-03-23T16:02:18;20.80;99.90
15083;DHT22;7640;53.116;6.878;2023-03-23T16:04:51;21.00;99.90
15083;DHT22;7640;53.116;6.878;2023-03-23T16:07:27;20.80;99.90
15083;DHT22;7640;53.116;6.878;2023-03-23T16:09:58;20.80;99.90
15083;DHT22;7640;53.116;6.878;2023-03-23T16:12:30;20.70;99.90
15083;DHT22;7640;53.116;6.878;2023-03-23T16:15:01;20.70;99.90
15083;DHT22;7640;53.116;6.878;2023-03-23T16:17:35;20.50;99.90
15083;DHT22;7640;53.116;6.878;2023-03-23T16:20:13;20.20;99.90
15083;DHT22;7640;53.116;6.878;2023-03-23T16:22:44;19.90;99.90
15083;DHT22;7640;53.116;6.878;2023-03-23T16:25:14;19.60;99.90
15083;DHT22;7640;53.116;6.878;2023-03-23T16:27:45;19.20;99.90
15083;DHT22;7640;53.116;6.878;2023-03-23T16:30:21;18.70;99.90
15083;DHT22;7640;53.116;6.878;2023-03-23T16:32:53;18.30;99.90
15083;DHT22;7640;53.116;6.878;2023-03-23T16:35:24;18.10;99.90
15083;DHT22;7640;53.116;6.878;2023-03-23T16:38:00;18.10;99.90
15083;DHT22;7640;53.116;6.878;2023-03-23T16:40:47;18.20;99.90
15083;DHT22;7640;53.116;6.878;2023-03-23T16:43:22;18.30;99.90
15083;DHT22;7640;53.116;6.878;2023-03-23T16:45:56;18.20;99.90
15083;DHT22;7640;53.116;6.878;2023-03-23T16:48:27;17.90;99.90
15083;DHT22;7640;53.116;6.878;2023-03-23T16:50:57;17.50;99.90
15083;DHT22;7640;53.116;6.878;2023-03-23T16:53:29;17.10;99.90
15083;DHT22;7640;53.116;6.878;2023-03-23T16:55:58;16.90;99.90
15083;DHT22;7640;53.116;6.878;2023-03-23T16:58:30;16.70;99.90
15083;DHT22;7640;53.116;6.878;2023-03-23T17:01:01;16.50;99.90
15083;DHT22;7640;53.116;6.878;2023-03-23T17:04:01;16.40;99.90
15083;DHT22;7640;53.116;6.878;2023-03-23T17:06:31;16.20;99.90
15083;DHT22;7640;53.116;6.878;2023-03-23T17:09:01;16.00;99.90
15083;DHT22;7640;53.116;6.878;2023-03-23T17:11:31;15.90;99.90